Saturday, November 18, 2017, 11:58 AM GMT
Back to Local

CWWZ, Port Weller, Ont.

Location: , , Canada Lat: 43.25
Local Time: 11:58 AM GMT (11:58 GMT) Lon: -79.217
Time Zone: GMT Elev: 259 ft

Show me the last for .
Show Decoded

2017-11-18 11:00 METAR CWWZ 181100Z AUTO 15005KT 05/02 RMK AO1 6PAST HR PRESFR SOG 00 8041 SLP028
                 P0002 T00520015 50006 =
2017-11-18 10:00 METAR CWWZ 181000Z AUTO 12004KT 05/M00 RMK AO1 SOG 00 6031 SLP049 T00471003 =
2017-11-18 09:00 METAR CWWZ 180900Z AUTO 09006KT 05/M00 RMK AO1 SLP057 T00471001 56037 =
2017-11-18 08:00 METAR CWWZ 180800Z AUTO 11006KT 04/M01 RMK AO1 SLP070 T00361011 56044 =
2017-11-18 07:00 METAR CWWZ 180700Z AUTO 10007KT 03/M00 RMK AO1 SOG 00 7047 SLP081 T00321001 =
2017-11-18 06:00 METAR CWWZ 180600Z AUTO 10007KT 03/M00 RMK AO1 SOG 00 8048 SLP095 T00271002 =
2017-11-18 05:00 METAR CWWZ 180500Z AUTO 12008KT 02/M01 RMK AO1 SOG 00 8041 SLP114 T00221011 =
2017-11-18 04:00 METAR CWWZ 180400Z AUTO 12008KT 02/M01 RMK AO1 SOG 00 8038 SLP128 T00221013 =
2017-11-18 03:00 METAR CWWZ 180300Z AUTO 11008KT 02/M02 RMK AO1 SOG 00 8033 SLP144 T00211017 =
2017-11-18 02:00 METAR CWWZ 180200Z AUTO 11007KT 02/M02 RMK AO1 SOG 00 6035 SLP156 T00221019 =
2017-11-18 01:00 METAR CWWZ 180100Z AUTO 10009KT 03/M01 RMK AO1 SOG 00 8027 SLP167 T00261012 =
2017-11-18 00:00 METAR CWWZ 180000Z AUTO 12005KT 03/M02 RMK AO1 SLP177 T00261019 58030 =
2017-11-17 23:00 METAR CWWZ 172300Z AUTO 13004KT 03/M02 RMK AO1 SOG 00 6028 SLP191 T00271022 =
2017-11-17 22:00 METAR CWWZ 172200Z AUTO 12005KT 03/M02 RMK AO1 SLP194 T00271015 58034 =
2017-11-17 21:00 METAR CWWZ 172100Z AUTO 20004KT 03/M04 RMK AO1 SOG 00 8029 SLP207 T00261038 =
2017-11-17 20:00 METAR CWWZ 172000Z AUTO 24002KT 03/M05 RMK AO1 SLP219 T00311046 58025 =
2017-11-17 19:00 METAR CWWZ 171900Z AUTO 32003KT 02/M04 RMK AO1 SLP228 T00201039 56028 =
2017-11-17 18:00 METAR CWWZ 171800Z AUTO 29002KT 01/M04 RMK AO1 SLP236 T00131044 58024 =
2017-11-17 17:00 METAR CWWZ 171700Z AUTO 19003KT 01/M05 RMK AO1 SLP244 T00121047 58018 =
2017-11-17 16:00 METAR CWWZ 171600Z AUTO 29006KT 01/M05 RMK AO1 SLP257 T00091047 58003 =
2017-11-17 15:00 METAR CWWZ 171500Z AUTO 30003KT 01/M04 RMK AO1 SLP261 T00081042 50006 =
2017-11-17 14:00 METAR CWWZ 171400Z AUTO 33006KT 01/M04 RMK AO1 SLP263 T00061035 51015 =
2017-11-17 13:00 METAR CWWZ 171300Z AUTO 35008KT 01/M04 RMK AO1 SOG 00 2017 SLP260 T00071036 =
2017-11-17 12:00 METAR CWWZ 171200Z AUTO 32008KT M00/M05 RMK AO1 SOG 00 3016 SLP254 T10031046 =

Support USWX by starting your Amazon purchase here.